Latest Coastal Weather Observations for Mornington Island Airport

IDQ60701

Issued at 7:02 pm EST Monday 27 February 2017 (issued every 10 minutes, with the page automatically refreshed every 10 minutes)

About coastal observations | Map of coastal stations | Coastal observations for QLD | Marine services | Other Formats
Station Details ID: 029182 Name: MORNINGTON ISLAND AIRPORT Lat: -16.66 Lon: 139.17 Height: 9.52 m
Data from the previous 72 hours. | See also: Recent months at Mornington Island Airport
Date/Time
EST
Temp
°C
Wind Pressure Rain since
9am
mm
Weather Cloud Vis
km
Sea
Height
m
Swell
Dir  Spd
kts
Gust
kts
hPa Trend Height
m
Period
s
Dir
27/07:00pm 29.3 SE 3 4 1008.2 - 0.0 - - - - - - -
27/06:30pm 29.9 SE 5 8 1008.0 - 0.0 - - - - - - -
27/06:00pm 30.1 SSE 7 11 1007.8 - 0.0 - - - - - - -
27/05:30pm 30.3 SSE 9 12 1007.7 - 0.0 - - - - - - -
27/05:00pm 30.6 SSE 9 13 1007.7 - 0.0 - - - - - - -
27/04:30pm 30.9 SSE 8 12 1007.8 - 0.0 - - - - - - -
27/04:00pm 31.6 S 6 9 1008.1 - 0.0 - - - - - - -
27/03:30pm 30.9 WNW 7 10 1008.3 - 0.0 - - - - - - -
27/03:00pm 30.8 W 7 11 1008.8 - 0.0 - - - - - - -
27/02:30pm 29.4 WNW 7 8 1009.3 - 0.0 - - - - - - -
27/02:00pm 29.5 WNW 8 11 1009.5 - 0.0 - - - - - - -
27/01:30pm 29.7 NW 8 12 1009.7 - 0.0 - - - - - - -
27/01:00pm 29.1 WSW 5 8 1010.3 - 0.0 - - - - - - -
27/12:30pm 29.7 NW 9 11 1010.4 - 0.0 - - - - - - -
27/12:00pm 30.0 NNW 7 9 1010.3 - 0.0 - - - - - - -
27/11:30am 31.9 E 5 9 1010.6 - 0.0 - - - - - - -
27/11:00am 32.0 NE 6 10 1010.7 - 0.0 - - - - - - -
27/10:30am 31.0 NE 7 11 1010.9 - 0.0 - - - - - - -
27/10:00am 30.5 NE 7 10 1010.9 - 0.0 - - - - - - -
27/09:30am 30.4 NE 7 10 1010.9 - 0.0 - - - - - - -
27/09:00am 29.4 NNE 7 9 1010.9 - 0.0 - - - - - - -
27/08:30am 28.6 NNE 7 11 1010.7 - 0.0 - - - - - - -
27/08:00am 27.7 NNE 5 9 1010.3 - 0.0 - - - - - - -
27/07:30am 26.4 NNE 5 7 1009.9 - 0.0 - - - - - - -
27/07:00am 25.7 ENE 3 4 1009.9 - 0.0 - - - - - - -
27/06:30am 25.5 NNE 3 4 1009.7 - 0.0 - - - - - - -
27/06:00am 25.6 NNW 1 5 1009.3 - 0.0 - - - - - - -
27/05:30am 25.8 NNW 4 5 1009.0 - 0.0 - - - - - - -
27/05:00am 25.8 CALM 0 4 1008.8 - 0.0 - - - - - - -
27/04:30am 25.4 CALM 0 0 1008.6 - 0.0 - - - - - - -
27/04:00am 25.5 CALM 0 0 1008.4 - 0.0 - - - - - - -
27/03:30am 25.6 CALM 0 0 1008.4 - 0.0 - - - - - - -
27/03:00am 25.7 CALM 0 0 1008.6 - 0.0 - - - - - - -
27/02:30am 25.7 N 1 3 1008.7 - 0.0 - - - - - - -
27/02:00am 25.8 N 3 4 1008.9 - 0.0 - - - - - - -
27/01:30am 25.8 N 5 5 1009.0 - 0.0 - - - - - - -
27/01:00am 25.8 NNE 1 3 1009.1 - 0.0 - - - - - - -
27/12:30am 26.2 NE 4 5 1009.4 - 0.0 - - - - - - -
27/12:00am 26.3 NE 4 5 1009.7 - 0.0 - - - - - - -
 
Date/Time
EST
Temp
°C
Wind Pressure Rain since
9am
mm
Weather Cloud Vis
km
Sea
Height
m
Swell
Dir  Spd
kts
Gust
kts
hPa Trend Height
m
Period
s
Dir
26/11:30pm 26.4 NE 3 4 1009.9 - 0.0 - - - - - - -
26/11:00pm 26.3 NE 4 4 1010.0 - 0.0 - - - - - - -
26/10:30pm 26.5 NE 3 4 1009.8 - 0.0 - - - - - - -
26/10:00pm 26.4 NE 4 5 1009.5 - 0.0 - - - - - - -
26/09:30pm 26.8 ENE 4 5 1009.2 - 0.0 - - - - - - -
26/09:00pm 27.0 E 4 6 1008.8 - 0.0 - - - - - - -
26/08:30pm 27.2 E 4 5 1008.7 - 0.0 - - - - - - -
26/08:00pm 27.3 ESE 6 7 1008.5 - 0.0 - - - - - - -
26/07:30pm 27.6 ESE 4 6 1008.4 - 0.0 - - - - - - -
26/07:00pm 28.3 ESE 6 7 1008.1 - 0.0 - - - - - - -
26/06:30pm 28.8 WNW 3 4 1007.7 - 0.0 - - - - - - -
26/06:00pm 30.2 WNW 3 5 1007.2 - 0.0 - - - - - - -
26/05:30pm 30.2 NW 4 8 1007.2 - 0.0 - - - - - - -
26/05:00pm 30.2 NW 4 7 1007.2 - 0.0 - - - - - - -
26/04:30pm 30.6 SSE 6 9 1007.2 - 0.0 - - - - - - -
26/04:00pm 30.9 SE 7 11 1007.3 - 0.0 - - - - - - -
26/03:30pm 30.9 SE 9 12 1007.3 - 0.0 - - - - - - -
26/03:00pm 30.5 SE 9 12 1007.5 - 0.0 - - - - - - -
26/02:30pm 30.6 SSE 9 13 1007.7 - 0.0 - - - - - - -
26/02:00pm 30.8 SSE 8 13 1008.0 - 0.0 - - - - - - -
26/01:30pm 30.3 SE 9 11 1008.4 - 0.0 - - - - - - -
26/01:00pm 30.7 SE 9 14 1008.8 - 0.0 - - - - - - -
26/12:30pm 31.0 SE 10 13 1009.3 - 0.0 - - - - - - -
26/12:00pm 30.4 SE 11 17 1009.5 - 0.0 - - - - - - -
26/11:30am 30.5 SE 9 13 1009.8 - 0.0 - - - - - - -
26/11:00am 30.3 SE 9 13 1009.9 - 0.0 - - - - - - -
26/10:30am 29.6 SE 7 10 1010.1 - 0.0 - - - - - - -
26/10:00am 28.7 SSE 7 10 1010.1 - 0.0 - - - - - - -
26/09:30am 28.6 SSE 5 7 1009.9 - 0.0 - - - - - - -
26/09:00am 27.4 S 4 5 1009.6 - 0.0 - - - - - - -
26/08:30am 26.7 CALM 0 0 1009.5 - 0.0 - - - - - - -
26/08:00am 25.7 CALM 0 0 1009.2 - 0.0 - - - - - - -
26/07:30am 24.8 ESE 4 5 1008.7 - 0.0 - - - - - - -
26/07:00am 24.5 E 1 3 1008.4 - 0.0 - - - - - - -
26/06:30am 24.5 ENE 4 5 1008.1 - 0.0 - - - - - - -
26/06:00am 24.7 E 7 9 1008.1 - 0.0 - - - - - - -
26/05:30am 24.8 ENE 9 13 1008.0 - 0.0 - - - - - - -
26/05:00am 25.1 ENE 11 14 1007.9 - 0.0 - - - - - - -
26/04:30am 26.1 ENE 10 14 1008.0 - 0.0 - - - - - - -
26/04:00am 26.5 ENE 11 16 1008.5 - 0.0 - - - - - - -
26/03:30am 26.4 NE 6 8 1008.5 - 0.0 - - - - - - -
26/03:00am 27.1 NNW 5 6 1008.3 - 0.0 - - - - - - -
26/02:30am 27.1 NW 5 7 1008.1 - 0.0 - - - - - - -
26/02:00am 27.3 WNW 7 8 1007.9 - 0.0 - - - - - - -
26/01:30am 27.0 NW 6 7 1008.1 - 0.0 - - - - - - -
26/01:00am 26.4 NE 4 5 1008.4 - 0.0 - - - - - - -
26/12:30am 26.5 NE 3 5 1008.7 - 0.0 - - - - - - -
26/12:00am 26.1 CALM 0 0 1009.2 - 0.0 - - - - - - -
 
Date/Time
EST
Temp
°C
Wind Pressure Rain since
9am
mm
Weather Cloud Vis
km
Sea
Height
m
Swell
Dir  Spd
kts
Gust
kts
hPa Trend Height
m
Period
s
Dir
25/11:30pm 26.4 CALM 0 1 1009.5 - 0.0 - - - - - - -
25/11:00pm 26.8 NE 2 4 1009.9 - 0.0 - - - - - - -
25/10:30pm 26.9 NE 3 3 1010.0 - 0.0 - - - - - - -
25/10:00pm 26.9 CALM 0 0 1009.7 - 0.0 - - - - - - -
25/09:30pm 27.0 CALM 0 1 1009.5 - 0.0 - - - - - - -
25/09:00pm 27.7 ENE 3 4 1009.3 - 0.0 - - - - - - -
25/08:30pm 28.0 ENE 4 5 1009.3 - 0.0 - - - - - - -
25/08:00pm 27.8 SE 4 5 1008.7 - 0.0 - - - - - - -
25/07:30pm 28.2 SSE 4 5 1008.3 - 0.0 - - - - - - -
25/07:00pm 28.8 S 3 4 1008.1 - 0.0 - - - - - - -
25/06:30pm 29.8 S 3 5 1007.6 - 0.0 - - - - - - -
25/06:00pm 31.0 W 2 3 1007.2 - 0.0 - - - - - - -
25/05:30pm 30.7 W 5 6 1007.3 - 0.0 - - - - - - -
25/05:00pm 30.3 W 6 8 1007.3 - 0.0 - - - - - - -
25/04:30pm 30.5 W 6 8 1007.7 - 0.0 - - - - - - -
25/04:00pm 30.3 W 7 9 1008.1 - 0.0 - - - - - - -
25/03:30pm 29.9 W 7 9 1008.5 - 0.0 - - - - - - -
25/03:00pm 30.0 W 7 8 1008.6 - 0.0 - - - - - - -
25/02:30pm 29.5 W 7 9 1008.7 - 0.0 - - - - - - -
25/02:00pm 29.4 W 6 7 1008.9 - 0.0 - - - - - - -
25/01:30pm 29.8 W 6 8 1009.0 - 0.0 - - - - - - -
25/01:00pm 29.5 WSW 5 7 1009.3 - 0.0 - - - - - - -
25/12:30pm 28.6 WSW 5 7 1009.9 - 0.0 - - - - - - -
25/12:00pm 28.3 WSW 6 9 1010.4 - 0.0 - - - - - - -
25/11:30am 27.9 WNW 5 7 1010.7 - 0.0 - - - - - - -
25/11:00am 28.0 W 4 5 1010.9 - 0.0 - - - - - - -
25/10:30am 27.8 WNW 5 6 1011.3 - 0.0 - - - - - - -
25/10:00am 27.9 N 4 6 1011.5 - 0.0 - - - - - - -
25/09:30am 27.4 WNW 5 6 1011.6 - 0.0 - - - - - - -
25/09:00am 27.8 NNW 5 6 1011.5 - 6.4 - - - - - - -
25/08:30am 27.2 WNW 4 5 1011.7 - 6.4 - - - - - - -
25/08:00am 26.7 WNW 5 6 1011.7 - 6.4 - - - - - - -
25/07:30am 26.2 W 7 9 1011.7 - 6.4 - - - - - - -
25/07:00am 26.0 W 8 10 1011.2 - 6.4 - - - - - - -
25/06:30am 26.0 WSW 8 11 1011.0 - 6.4 - - - - - - -
25/06:00am 26.4 SW 8 11 1010.4 - 6.4 - - - - - - -
25/05:30am 25.8 SW 7 15 1010.4 - 6.4 - - - - - - -
25/05:00am 26.0 SSW 7 12 1010.1 - 6.4 - - - - - - -
25/04:30am 24.5 SSW 4 6 1009.1 - 6.4 - - - - - - -
25/04:00am 24.6 W 3 5 1009.0 - 6.4 - - - - - - -
25/03:30am 25.2 E 5 6 1009.3 - 6.4 - - - - - - -
25/03:00am 25.1 ENE 9 14 1008.7 - 6.4 - - - - - - -
25/02:30am 25.3 NE 7 9 1009.5 - 6.4 - - - - - - -
25/02:00am 25.5 NE 10 15 1010.3 - 6.4 - - - - - - -
25/01:30am 25.2 NE 11 16 1011.0 - 6.4 - - - - - - -
25/01:00am 25.1 ENE 17 24 1011.3 - 4.8 - - - - - - -
25/12:30am 26.7 NNE 13 20 1011.5 - 0.0 - - - - - - -
25/12:00am 27.4 NW 2 3 1011.2 - 0.0 - - - - - - -
 
Date/Time
EST
Temp
°C
Wind Pressure Rain since
9am
mm
Weather Cloud Vis
km
Sea
Height
m
Swell
Dir  Spd
kts
Gust
kts
hPa Trend Height
m
Period
s
Dir
24/11:30pm 27.5 CALM 0 0 1011.1 - 0.0 - - - - - - -
24/11:00pm 27.4 CALM 0 0 1011.6 - 0.0 - - - - - - -
24/10:30pm 27.7 ESE 3 3 1011.9 - 0.0 - - - - - - -
24/10:00pm 27.6 CALM 0 0 1011.7 - 0.0 - - - - - - -
24/09:30pm 27.4 CALM 0 0 1011.4 - 0.0 - - - - - - -
24/09:00pm 27.8 ESE 2 3 1011.1 - 0.0 - - - - - - -
24/08:30pm 28.1 ESE 4 5 1010.9 - 0.0 - - - - - - -
24/08:00pm 28.2 ESE 3 4 1010.5 - 0.0 - - - - - - -
24/07:30pm 28.6 ESE 5 6 1010.0 - 0.0 - - - - - - -

Other Formats:

Comma delimited format used in spreadsheet applications
http://www.bom.gov.au/fwo/IDQ60701/IDQ60701.94254.axf

JavaScript Object Notation format (JSON) in row-major order
http://www.bom.gov.au/fwo/IDQ60701/IDQ60701.94254.json